Time;durP1;ratioP1;P1;durP2;ratioP2;P2;SDS_P1;SDS_P2;PMS_P1;PMS_P2;Temp;Humidity;BMP_temperature;BMP_pressure;BME280_temperature;BME280_humidity;BME280_pressure;Samples;Min_cycle;Max_cycle;Signal;HPM_P1;HPM_P2
2023/06/20 00:00:11;;;;;;;;;;;;;;;22.03;29.56;97832.06;5056482;28;1012;-78
2023/06/20 00:02:40;;;;;;;;;;;;;;;22.04;29.46;97828.00;5024270;28;1155;-77
2023/06/20 00:05:06;;;;;;;;;;;;;;;22.01;29.52;97822.44;5056452;28;1042;-77
2023/06/20 00:07:32;;;;;;;;;;;;;;;22.05;29.76;97823.13;5023450;28;1156;-77
2023/06/20 00:09:57;;;;;;;;;;;;;;;22.05;29.67;97823.91;5022790;28;886;-77
2023/06/20 00:12:23;;;;;;;;;;;;;;;22.06;29.55;97824.69;5056765;28;1970;-77
2023/06/20 00:14:48;;;;;;;;;;;;;;;22.14;29.75;97825.31;4983351;28;1250;-77
2023/06/20 00:17:14;;;;;;;;;;;;;;;22.08;30.05;97822.22;5000938;28;901;-77
2023/06/20 00:19:40;;;;;;;;;;;;;;;22.14;29.89;97820.44;4983135;28;1222;-77
2023/06/20 00:22:05;;;;;;;;;;;;;;;22.07;30.07;97820.63;4961580;28;1085;-77
2023/06/20 00:24:34;;;;;;;;;;;;;;;22.12;30.09;97822.13;4977380;28;1275;-77
2023/06/20 00:27:02;;;;;;;;;;;;;;;22.35;30.08;97824.63;4946997;28;1156;-77
2023/06/20 00:29:28;;;;;;;;;;;;;;;22.41;29.81;97816.34;4957904;28;1217;-77
2023/06/20 00:31:53;;;;;;;;;;;;;;;22.25;30.28;97815.22;4960524;28;1887;-77
2023/06/20 00:34:22;;;;;;;;;;;;;;;22.22;30.33;97821.78;4945467;29;1093;-77
2023/06/20 00:36:47;;;;;;;;;;;;;;;22.18;30.50;97821.13;4962076;28;1217;-77
2023/06/20 00:39:13;;;;;;;;;;;;;;;22.11;30.71;97821.34;4961422;28;1239;-77
2023/06/20 00:41:41;;;;;;;;;;;;;;;22.14;30.66;97828.16;4962287;28;1147;-77
2023/06/20 00:44:06;;;;;;;;;;;;;;;22.26;30.44;97825.31;4945445;29;1351;-77
2023/06/20 00:46:32;;;;;;;;;;;;;;;22.40;30.23;97814.75;5004345;28;1124;-77
2023/06/20 00:49:00;;;;;;;;;;;;;;;22.07;30.69;97814.94;4983758;28;1318;-77
2023/06/20 00:51:28;;;;;;;;;;;;;;;22.10;30.87;97819.72;4984471;28;1985;-77
2023/06/20 00:53:53;;;;;;;;;;;;;;;22.15;30.97;97821.22;4984078;28;909;-77
2023/06/20 00:56:19;;;;;;;;;;;;;;;22.31;30.80;97819.06;5000928;28;775;-77
2023/06/20 00:58:45;;;;;;;;;;;;;;;22.32;30.65;97820.66;4991962;28;1168;-77
2023/06/20 01:01:10;;;;;;;;;;;;;;;22.20;31.08;97823.50;5003928;28;1269;-77
2023/06/20 01:03:38;;;;;;;;;;;;;;;22.19;31.17;97819.88;5003268;28;1263;-77
2023/06/20 01:06:22;;;;;;;;;;;;;;;22.41;30.72;97810.66;5020349;28;1785;-77
2023/06/20 01:08:48;;;;;;;;;;;;;;;22.32;30.94;97809.31;5019491;28;942;-78
2023/06/20 01:11:31;;;;;;;;;;;;;;;22.12;31.29;97811.56;5020083;28;1977;-77
2023/06/20 01:13:57;;;;;;;;;;;;;;;22.28;31.08;97802.97;5019051;28;907;-77
2023/06/20 01:16:46;;;;;;;;;;;;;;;22.12;31.31;97807.94;5036987;28;1061;-77
2023/06/20 01:19:23;;;;;;;;;;;;;;;22.03;31.47;97803.75;5019344;28;1297;-77
2023/06/20 01:21:59;;;;;;;;;;;;;;;22.13;31.50;97789.72;5003348;28;1528;-77
2023/06/20 01:24:38;;;;;;;;;;;;;;;22.49;30.75;97792.19;4987045;28;1311;-77
2023/06/20 01:27:03;;;;;;;;;;;;;;;22.10;31.36;97791.38;4987355;28;1218;-77
2023/06/20 01:29:32;;;;;;;;;;;;;;;22.29;31.11;97790.38;4986570;28;1300;-78
2023/06/20 01:32:00;;;;;;;;;;;;;;;22.47;30.76;97791.84;4979406;28;1922;-77
2023/06/20 01:34:27;;;;;;;;;;;;;;;22.32;31.39;97797.97;4983493;28;1135;-77
2023/06/20 01:36:54;;;;;;;;;;;;;;;22.22;31.44;97793.44;4984544;28;1035;-77
2023/06/20 01:39:22;;;;;;;;;;;;;;;22.43;31.10;97794.78;4982883;28;1248;-77
2023/06/20 01:41:47;;;;;;;;;;;;;;;22.31;31.34;97790.72;4983340;28;1108;-77
2023/06/20 01:44:13;;;;;;;;;;;;;;;22.36;31.29;97797.88;4982422;28;988;-77
2023/06/20 01:46:39;;;;;;;;;;;;;;;22.53;30.87;97801.34;4996185;28;1301;-78
2023/06/20 01:49:05;;;;;;;;;;;;;;;22.28;31.25;97802.97;4999318;28;1175;-77
2023/06/20 01:51:30;;;;;;;;;;;;;;;22.38;30.96;97808.72;4999455;28;1980;-77
2023/06/20 01:53:56;;;;;;;;;;;;;;;22.31;31.35;97804.88;4998850;28;1156;-77
2023/06/20 01:56:22;;;;;;;;;;;;;;;22.54;30.73;97805.78;5011447;28;1070;-78
2023/06/20 01:58:47;;;;;;;;;;;;;;;22.69;30.37;97815.41;4986210;28;1156;-77
2023/06/20 02:01:13;;;;;;;;;;;;;;;22.62;30.58;97812.78;4986500;28;1146;-77
2023/06/20 02:03:41;;;;;;;;;;;;;;;22.50;31.12;97810.78;4985870;28;1313;-77
2023/06/20 02:06:06;;;;;;;;;;;;;;;22.39;31.12;97808.31;4999703;28;1269;-78
2023/06/20 02:08:32;;;;;;;;;;;;;;;22.26;31.45;97822.47;5002892;28;846;-77
2023/06/20 02:10:58;;;;;;;;;;;;;;;22.35;31.18;97813.28;4967254;28;1883;-77
2023/06/20 02:13:23;;;;;;;;;;;;;;;22.45;30.95;97819.84;4982419;28;1193;-77
2023/06/20 02:15:52;;;;;;;;;;;;;;;22.42;30.96;97812.25;4999332;28;1183;-77
2023/06/20 02:18:18;;;;;;;;;;;;;;;22.39;31.03;97830.19;4966403;28;1038;-77
2023/06/20 02:20:44;;;;;;;;;;;;;;;22.31;31.33;97830.41;4983170;28;933;-77
2023/06/20 02:23:09;;;;;;;;;;;;;;;22.44;30.96;97838.13;4966201;28;1087;-77
2023/06/20 02:25:36;;;;;;;;;;;;;;;22.46;30.93;97832.78;4982774;28;1132;-77
2023/06/20 02:28:05;;;;;;;;;;;;;;;22.56;30.86;97845.81;4966756;28;1310;-77
2023/06/20 02:30:31;;;;;;;;;;;;;;;22.30;30.95;97840.16;4982764;28;1980;-77
2023/06/20 02:32:57;;;;;;;;;;;;;;;22.23;31.34;97857.41;4966619;28;1156;-77
2023/06/20 02:35:23;;;;;;;;;;;;;;;22.38;30.86;97857.72;4965910;28;1701;-77
2023/06/20 02:37:49;;;;;;;;;;;;;;;22.44;30.95;97855.94;4982519;28;1124;-77
2023/06/20 02:40:14;;;;;;;;;;;;;;;22.69;30.38;97843.78;4982062;28;1270;-77
2023/06/20 02:42:40;;;;;;;;;;;;;;;22.32;30.78;97849.00;5011462;28;1135;-77
2023/06/20 02:45:06;;;;;;;;;;;;;;;22.52;30.52;97851.59;5024614;28;1224;-77
2023/06/20 02:47:49;;;;;;;;;;;;;;;22.53;30.65;97846.72;5058723;28;815;-77
2023/06/20 02:50:20;;;;;;;;;;;;;;;22.61;30.27;97846.03;5025316;28;1191;-77
2023/06/20 02:52:52;;;;;;;;;;;;;;;22.49;30.50;97857.41;5058532;28;1983;-78
2023/06/20 02:55:34;;;;;;;;;;;;;;;22.61;30.33;97859.41;5074796;28;788;-78
2023/06/20 02:58:01;;;;;;;;;;;;;;;22.54;30.46;97859.66;5057853;28;1257;-79
2023/06/20 03:00:26;;;;;;;;;;;;;;;22.63;30.35;97871.88;5017317;28;1167;-78
2023/06/20 03:03:06;;;;;;;;;;;;;;;22.41;30.35;97873.03;5033589;28;914;-78
2023/06/20 03:05:32;;;;;;;;;;;;;;;22.41;30.49;97867.38;5033715;28;889;-78
2023/06/20 03:07:58;;;;;;;;;;;;;;;22.48;30.13;97875.63;5016703;28;1245;-79
2023/06/20 03:10:24;;;;;;;;;;;;;;;22.34;30.25;97880.53;5013584;28;1206;-79
2023/06/20 03:12:50;;;;;;;;;;;;;;;22.45;30.31;97885.06;5013465;28;1910;-79
2023/06/20 03:15:16;;;;;;;;;;;;;;;22.39;30.42;97886.88;5014110;28;1158;-78
2023/06/20 03:17:41;;;;;;;;;;;;;;;22.33;30.49;97878.16;5014308;28;1151;-78
2023/06/20 03:20:09;;;;;;;;;;;;;;;22.27;30.78;97885.63;4997031;28;993;-79
2023/06/20 03:22:36;;;;;;;;;;;;;;;22.39;30.50;97881.22;4998047;28;1405;-79
2023/06/20 03:25:01;;;;;;;;;;;;;;;22.46;30.22;97880.97;5014025;28;1228;-79
2023/06/20 03:27:27;;;;;;;;;;;;;;;22.61;30.02;97884.94;5014678;28;1152;-79
2023/06/20 03:29:53;;;;;;;;;;;;;;;22.29;30.75;97888.81;4997708;28;1134;-79
2023/06/20 03:32:19;;;;;;;;;;;;;;;22.39;30.34;97886.88;4997848;28;1987;-80
2023/06/20 03:34:45;;;;;;;;;;;;;;;22.70;29.97;97889.94;5013356;28;798;-79
2023/06/20 03:37:10;;;;;;;;;;;;;;;22.54;30.09;97880.31;5014115;28;1535;-79
2023/06/20 03:39:36;;;;;;;;;;;;;;;22.28;30.74;97882.34;4997474;28;1163;-79
2023/06/20 03:42:02;;;;;;;;;;;;;;;22.31;30.54;97881.41;4981492;28;1242;-79
2023/06/20 03:44:33;;;;;;;;;;;;;;;22.65;30.38;97871.44;4998007;28;1187;-80
2023/06/20 03:46:59;;;;;;;;;;;;;;;22.50;30.51;97881.66;5007858;28;1587;-79
2023/06/20 03:49:25;;;;;;;;;;;;;;;22.65;30.14;97877.13;5040795;28;1192;-79
2023/06/20 03:51:51;;;;;;;;;;;;;;;22.54;30.23;97880.31;5057928;28;1882;-80
2023/06/20 03:54:16;;;;;;;;;;;;;;;22.61;30.29;97882.09;5057539;28;1166;-80
2023/06/20 03:56:42;;;;;;;;;;;;;;;22.50;30.38;97885.28;5040989;28;1127;-79
2023/06/20 03:59:07;;;;;;;;;;;;;;;22.50;30.71;97888.13;5040901;28;1233;-80
2023/06/20 04:01:33;;;;;;;;;;;;;;;22.53;30.60;97880.75;5057948;28;1056;-79
2023/06/20 04:03:59;;;;;;;;;;;;;;;22.39;30.79;97889.72;5057354;28;1115;-79
2023/06/20 04:06:29;;;;;;;;;;;;;;;22.26;31.09;97887.66;5018287;28;1143;-80
2023/06/20 04:08:57;;;;;;;;;;;;;;;22.08;31.40;97888.19;5037216;28;1372;-79
2023/06/20 04:11:23;;;;;;;;;;;;;;;22.49;30.86;97891.41;5037714;28;1960;-79
2023/06/20 04:13:49;;;;;;;;;;;;;;;22.40;30.75;97894.13;5037313;28;863;-79
2023/06/20 04:16:14;;;;;;;;;;;;;;;22.49;30.62;97891.41;5020932;28;1156;-79
2023/06/20 04:18:40;;;;;;;;;;;;;;;22.48;30.80;97889.81;5037136;28;1147;-79
2023/06/20 04:21:07;;;;;;;;;;;;;;;22.64;30.46;97898.22;5021072;28;802;-79
2023/06/20 04:23:33;;;;;;;;;;;;;;;22.23;31.29;97902.75;5016474;28;917;-80
2023/06/20 04:25:59;;;;;;;;;;;;;;;22.45;30.98;97899.25;5002010;28;1142;-79
2023/06/20 04:28:25;;;;;;;;;;;;;;;22.49;30.87;97908.44;5019573;28;1342;-79
2023/06/20 04:30:55;;;;;;;;;;;;;;;22.38;30.80;97902.28;5005367;28;1964;-79
2023/06/20 04:33:22;;;;;;;;;;;;;;;22.34;31.22;97903.22;5019662;28;1143;-79
2023/06/20 04:35:48;;;;;;;;;;;;;;;22.55;31.01;97906.63;4988382;28;1155;-79
2023/06/20 04:38:15;;;;;;;;;;;;;;;22.55;30.93;97915.13;5020185;28;1151;-79
2023/06/20 04:40:41;;;;;;;;;;;;;;;22.61;30.43;97911.25;5040317;28;1081;-79
2023/06/20 04:43:07;;;;;;;;;;;;;;;22.49;30.69;97908.44;5039342;28;1154;-79
2023/06/20 04:45:32;;;;;;;;;;;;;;;22.52;30.96;97913.19;5039838;28;1197;-79
2023/06/20 04:47:58;;;;;;;;;;;;;;;22.62;30.61;97921.34;4999891;28;1243;-80
2023/06/20 04:50:24;;;;;;;;;;;;;;;22.69;30.37;97922.38;5000666;28;824;-79
2023/06/20 04:52:49;;;;;;;;;;;;;;;22.49;31.06;97925.44;5000227;28;1929;-79
2023/06/20 04:55:15;;;;;;;;;;;;;;;22.72;30.47;97922.25;5019994;28;901;-80
2023/06/20 04:57:40;;;;;;;;;;;;;;;22.60;30.85;97914.56;5003708;28;1175;-79
2023/06/20 05:00:12;;;;;;;;;;;;;;;22.52;30.84;97924.53;4971672;28;1207;-79
2023/06/20 05:02:42;;;;;;;;;;;;;;;22.41;31.18;97924.06;4985115;28;1291;-79
2023/06/20 05:05:10;;;;;;;;;;;;;;;22.53;30.81;97920.44;5000764;28;1315;-80
2023/06/20 05:07:36;;;;;;;;;;;;;;;22.68;30.92;97927.25;5000547;28;1283;-79
2023/06/20 05:10:02;;;;;;;;;;;;;;;22.66;30.72;97924.06;4999659;28;1112;-80
2023/06/20 05:12:27;;;;;;;;;;;;;;;22.52;30.90;97928.16;4984208;28;1902;-79
2023/06/20 05:14:53;;;;;;;;;;;;;;;22.61;30.71;97927.47;4983424;28;1156;-79
2023/06/20 05:17:18;;;;;;;;;;;;;;;22.69;30.91;97922.38;5000351;28;896;-80
2023/06/20 05:19:44;;;;;;;;;;;;;;;22.53;31.21;97920.44;5050564;28;831;-79
2023/06/20 05:22:09;;;;;;;;;;;;;;;22.55;31.34;97915.13;5043968;28;931;-80
2023/06/20 05:24:35;;;;;;;;;;;;;;;22.60;31.16;97904.00;5060197;28;1141;-79
2023/06/20 05:27:00;;;;;;;;;;;;;;;22.62;31.15;97907.16;5060122;28;985;-80
2023/06/20 05:29:26;;;;;;;;;;;;;;;22.54;31.46;97911.50;5043426;28;1473;-79
2023/06/20 05:31:52;;;;;;;;;;;;;;;22.60;31.25;97909.69;5042550;28;1986;-80
2023/06/20 05:34:17;;;;;;;;;;;;;;;22.69;31.22;97906.16;5058472;28;925;-79
2023/06/20 05:36:43;;;;;;;;;;;;;;;22.61;31.41;97908.41;5026260;28;1223;-79
2023/06/20 05:39:09;;;;;;;;;;;;;;;22.90;30.79;97913.22;5058679;28;755;-80
2023/06/20 05:41:35;;;;;;;;;;;;;;;22.64;31.51;97918.06;5025904;28;1311;-80
2023/06/20 05:44:01;;;;;;;;;;;;;;;22.75;31.29;97912.84;5058774;28;874;-80
2023/06/20 05:46:26;;;;;;;;;;;;;;;22.68;31.42;97915.91;5059329;28;1076;-79
2023/06/20 05:48:52;;;;;;;;;;;;;;;22.56;31.74;97925.22;5058225;28;827;-81
2023/06/20 05:51:18;;;;;;;;;;;;;;;22.56;31.90;97930.88;5042693;28;1898;-80
2023/06/20 05:53:43;;;;;;;;;;;;;;;22.58;32.02;97934.06;5041471;28;1063;-79
2023/06/20 05:56:13;;;;;;;;;;;;;;;22.54;32.25;97939.84;5043177;28;1160;-80
2023/06/20 05:58:39;;;;;;;;;;;;;;;22.51;32.12;97945.63;5058441;28;841;-80
2023/06/20 06:01:04;;;;;;;;;;;;;;;22.48;32.33;97952.19;5042975;28;868;-79
2023/06/20 06:03:32;;;;;;;;;;;;;;;22.38;32.34;97948.44;5041873;28;1478;-79
2023/06/20 06:05:58;;;;;;;;;;;;;;;22.69;31.52;97951.53;5043548;28;1144;-79
2023/06/20 06:08:23;;;;;;;;;;;;;;;22.51;32.09;97945.63;5075110;28;750;-80
2023/06/20 06:10:49;;;;;;;;;;;;;;;22.51;31.80;97940.75;5061259;28;1914;-79
2023/06/20 06:13:14;;;;;;;;;;;;;;;22.37;32.27;97941.19;5075784;28;804;-80
2023/06/20 06:15:39;;;;;;;;;;;;;;;22.69;31.67;97940.19;5060230;28;794;-80
2023/06/20 06:18:08;;;;;;;;;;;;;;;22.55;31.96;97934.97;5060819;28;730;-80
2023/06/20 06:20:34;;;;;;;;;;;;;;;22.70;31.42;97947.44;5058868;28;924;-79
2023/06/20 06:22:59;;;;;;;;;;;;;;;22.99;30.97;97935.19;5058561;28;877;-80
2023/06/20 06:25:25;;;;;;;;;;;;;;;22.65;31.97;97939.50;5059058;28;856;-79
2023/06/20 06:27:50;;;;;;;;;;;;;;;22.65;31.64;97942.34;5041323;28;1143;-80
2023/06/20 06:30:16;;;;;;;;;;;;;;;22.66;31.81;97946.75;5024159;28;1335;-80
2023/06/20 06:32:42;;;;;;;;;;;;;;;22.79;31.56;97939.03;5018204;28;1906;-80
2023/06/20 06:35:08;;;;;;;;;;;;;;;22.79;31.63;97944.72;4985817;28;1136;-80
2023/06/20 06:37:33;;;;;;;;;;;;;;;22.62;32.05;97951.75;4963769;28;1136;-80
2023/06/20 06:39:59;;;;;;;;;;;;;;;22.68;31.89;97944.25;4962647;28;1007;-80
2023/06/20 06:42:25;;;;;;;;;;;;;;;22.82;31.70;97943.81;4931715;28;1218;-80
2023/06/20 06:44:50;;;;;;;;;;;;;;;22.57;31.71;97940.97;4963011;28;1100;-79
2023/06/20 06:47:16;;;;;;;;;;;;;;;22.42;32.09;97949.13;4931593;28;1188;-79
2023/06/20 06:49:41;;;;;;;;;;;;;;;22.51;32.06;97946.41;4978175;28;885;-80
2023/06/20 06:52:07;;;;;;;;;;;;;;;22.64;31.77;97943.59;4948171;29;1919;-80
2023/06/20 06:54:33;;;;;;;;;;;;;;;22.40;31.97;97939.50;4958850;29;1479;-79
2023/06/20 06:56:58;;;;;;;;;;;;;;;22.52;31.81;97944.38;4960329;29;946;-79
2023/06/20 06:59:24;;;;;;;;;;;;;;;22.46;32.10;97946.19;4975116;28;1257;-79
2023/06/20 07:01:49;;;;;;;;;;;;;;;22.83;31.52;97956.75;4943672;29;1140;-80
2023/06/20 07:04:14;;;;;;;;;;;;;;;22.84;31.48;97955.47;4942937;29;1093;-79
2023/06/20 07:06:40;;;;;;;;;;;;;;;22.79;31.56;97950.38;4960085;29;929;-80
2023/06/20 07:09:06;;;;;;;;;;;;;;;22.83;31.27;97950.28;4977514;28;1226;-79
2023/06/20 07:11:31;;;;;;;;;;;;;;;23.05;31.16;97950.38;4975534;28;1906;-79
2023/06/20 07:13:57;;;;;;;;;;;;;;;22.84;31.26;97943.34;4928378;28;1137;-79
2023/06/20 07:16:22;;;;;;;;;;;;;;;22.65;32.10;97950.84;4978327;28;1121;-79
2023/06/20 07:18:48;;;;;;;;;;;;;;;22.56;32.13;97945.06;4961590;28;845;-79
2023/06/20 07:21:13;;;;;;;;;;;;;;;22.60;32.23;97942.91;4978686;28;940;-79
2023/06/20 07:23:39;;;;;;;;;;;;;;;22.69;32.19;97940.19;4977868;28;1095;-80
2023/06/20 07:26:04;;;;;;;;;;;;;;;22.59;32.45;97947.00;4960321;28;1133;-79
2023/06/20 07:28:30;;;;;;;;;;;;;;;22.79;32.14;97941.06;4961483;28;1253;-80
2023/06/20 07:30:55;;;;;;;;;;;;;;;22.32;33.09;97951.03;4978986;28;1910;-79
2023/06/20 07:33:21;;;;;;;;;;;;;;;22.66;32.59;97952.44;4961930;28;1294;-79
2023/06/20 07:35:46;;;;;;;;;;;;;;;22.93;32.19;97948.38;4978776;28;992;-79
2023/06/20 07:38:12;;;;;;;;;;;;;;;22.81;32.41;97941.44;4977654;28;804;-80
2023/06/20 07:40:40;;;;;;;;;;;;;;;22.78;32.51;97942.34;4962058;28;798;-79
2023/06/20 07:43:05;;;;;;;;;;;;;;;22.81;32.30;97941.44;4976023;28;925;-80
2023/06/20 07:45:31;;;;;;;;;;;;;;;22.67;32.72;97942.69;4997467;28;1274;-80
2023/06/20 07:47:56;;;;;;;;;;;;;;;22.65;32.87;97950.84;4994037;28;870;-79
2023/06/20 07:50:22;;;;;;;;;;;;;;;22.79;32.61;97944.72;4994642;28;805;-80
2023/06/20 07:52:48;;;;;;;;;;;;;;;22.85;32.39;97954.25;4961930;28;1883;-80
2023/06/20 07:55:14;;;;;;;;;;;;;;;22.88;32.30;97953.34;4994062;28;1284;-80
2023/06/20 07:57:39;;;;;;;;;;;;;;;22.85;32.18;97959.94;5038882;28;890;-80
2023/06/20 08:00:09;;;;;;;;;;;;;;;22.88;31.92;97947.69;5052896;28;938;-80
2023/06/20 08:02:37;;;;;;;;;;;;;;;22.87;31.92;97956.63;5036810;28;1124;-80
2023/06/20 08:05:04;;;;;;;;;;;;;;;22.97;31.70;97954.72;5019605;28;891;-79
2023/06/20 08:07:30;;;;;;;;;;;;;;;22.85;31.80;97959.94;5003898;28;1213;-79
2023/06/20 08:09:55;;;;;;;;;;;;;;;22.72;31.90;97955.50;5019600;28;920;-79
2023/06/20 08:12:21;;;;;;;;;;;;;;;22.38;32.44;97958.97;5020559;28;1914;-79
2023/06/20 08:14:46;;;;;;;;;;;;;;;22.72;31.51;97964.81;5019866;28;898;-79
2023/06/20 08:17:14;;;;;;;;;;;;;;;22.69;31.49;97967.75;5020407;28;980;-79
2023/06/20 08:19:39;;;;;;;;;;;;;;;22.72;31.67;97967.63;5035912;28;922;-80
2023/06/20 08:22:05;;;;;;;;;;;;;;;22.75;31.55;97965.94;5056404;28;955;-80
2023/06/20 08:24:30;;;;;;;;;;;;;;;22.50;31.46;97961.06;5039117;28;826;-80
2023/06/20 08:26:56;;;;;;;;;;;;;;;22.74;31.39;97970.00;5021145;28;1273;-79
2023/06/20 08:29:21;;;;;;;;;;;;;;;22.67;31.34;97961.75;5024988;28;1398;-79
2023/06/20 08:31:47;;;;;;;;;;;;;;;22.48;31.61;97957.84;5000815;28;1886;-80
2023/06/20 08:34:12;;;;;;;;;;;;;;;22.61;31.40;97956.63;5000655;28;1222;-80
2023/06/20 08:36:38;;;;;;;;;;;;;;;22.73;31.05;97962.75;5000571;28;914;-79
2023/06/20 08:39:04;;;;;;;;;;;;;;;23.05;30.47;97967.41;5018553;28;873;-80
2023/06/20 08:41:30;;;;;;;;;;;;;;;22.95;30.58;97968.56;5037003;28;935;-79
2023/06/20 08:43:56;;;;;;;;;;;;;;;22.70;31.13;97961.63;5019792;28;1155;-80
2023/06/20 08:46:24;;;;;;;;;;;;;;;22.62;31.42;97968.75;5035964;28;1100;-79
2023/06/20 08:48:49;;;;;;;;;;;;;;;22.46;31.83;97966.03;5018342;28;790;-79
2023/06/20 08:51:15;;;;;;;;;;;;;;;22.60;31.55;97962.75;5002905;28;1984;-80
2023/06/20 08:53:45;;;;;;;;;;;;;;;22.63;31.24;97964.69;5021480;28;895;-79
2023/06/20 08:56:11;;;;;;;;;;;;;;;22.77;31.06;97969.91;5006212;28;1111;-79
2023/06/20 08:58:36;;;;;;;;;;;;;;;22.74;31.06;97970.84;5021890;28;943;-80
2023/06/20 09:01:02;;;;;;;;;;;;;;;22.63;31.40;97964.69;5022682;28;894;-79
2023/06/20 09:03:28;;;;;;;;;;;;;;;22.49;31.72;97962.31;5037239;28;926;-79
2023/06/20 09:05:53;;;;;;;;;;;;;;;22.57;31.63;97970.13;5025249;28;882;-79
2023/06/20 09:08:19;;;;;;;;;;;;;;;22.65;31.39;97956.53;5025327;28;843;-79
2023/06/20 09:10:45;;;;;;;;;;;;;;;22.57;31.45;97960.81;4993214;28;1190;-79
2023/06/20 09:13:10;;;;;;;;;;;;;;;22.68;31.25;97964.13;5025658;28;1903;-79
2023/06/20 09:15:38;;;;;;;;;;;;;;;22.45;31.75;97967.28;5010330;28;1326;-79
2023/06/20 09:18:03;;;;;;;;;;;;;;;22.54;31.47;97970.25;5025855;28;1083;-79
2023/06/20 09:20:29;;;;;;;;;;;;;;;22.69;31.28;97976.25;5026657;28;1084;-79
2023/06/20 09:22:55;;;;;;;;;;;;;;;22.48;31.34;97970.00;5025146;28;866;-79
2023/06/20 09:25:21;;;;;;;;;;;;;;;22.66;31.27;97972.28;5042548;28;845;-79
2023/06/20 09:27:46;;;;;;;;;;;;;;;22.82;30.92;97966.50;5025905;28;1091;-79
2023/06/20 09:30:12;;;;;;;;;;;;;;;22.76;30.97;97961.84;5025785;28;843;-79
2023/06/20 09:32:39;;;;;;;;;;;;;;;22.54;31.41;97961.75;4997598;28;1989;-79
2023/06/20 09:35:08;;;;;;;;;;;;;;;22.53;31.54;97960.94;4965701;28;1200;-79
2023/06/20 09:37:40;;;;;;;;;;;;;;;22.62;31.14;97961.06;4982491;28;897;-79
2023/06/20 09:40:08;;;;;;;;;;;;;;;22.41;31.81;97955.25;4965338;28;1195;-79
2023/06/20 09:42:34;;;;;;;;;;;;;;;22.45;31.35;97953.91;4966156;28;1203;-79
2023/06/20 09:44:59;;;;;;;;;;;;;;;22.52;31.48;97947.22;4936527;28;1313947;-79
2023/06/20 09:47:25;;;;;;;;;;;;;;;22.61;31.14;97944.50;4983268;28;1242;-79
2023/06/20 09:49:50;;;;;;;;;;;;;;;22.77;30.98;97950.06;4966816;28;1163;-79
2023/06/20 09:52:15;;;;;;;;;;;;;;;22.37;31.81;97946.84;4983338;28;1927;-78
2023/06/20 09:54:41;;;;;;;;;;;;;;;22.36;31.73;97946.06;4966441;28;1063;-79
2023/06/20 09:57:08;;;;;;;;;;;;;;;22.65;31.41;97948.03;4983791;28;1189;-79
2023/06/20 09:59:34;;;;;;;;;;;;;;;22.47;31.69;97953.44;4966567;28;1089;-80
2023/06/20 10:01:59;;;;;;;;;;;;;;;22.61;31.44;97950.16;4961333;29;1112;-79
2023/06/20 10:04:25;;;;;;;;;;;;;;;22.83;31.07;97953.91;4990657;28;836;-79
2023/06/20 10:06:50;;;;;;;;;;;;;;;22.80;31.06;97952.00;4999269;28;1289;-79
2023/06/20 10:09:16;;;;;;;;;;;;;;;22.57;31.75;97955.16;4998688;28;786;-79
2023/06/20 10:11:41;;;;;;;;;;;;;;;22.68;31.60;97949.94;4982908;28;1922;-80
2023/06/20 10:14:07;;;;;;;;;;;;;;;22.86;31.33;97952.22;4998328;28;1056;-79
2023/06/20 10:16:34;;;;;;;;;;;;;;;22.82;31.13;97957.19;4995393;28;2014;-79
2023/06/20 10:19:14;;;;;;;;;;;;;;;22.68;31.45;97969.78;4978356;28;913;-79
2023/06/20 10:21:54;;;;;;;;;;;;;;;22.75;31.64;97965.94;4998809;28;1043;-79
2023/06/20 10:24:20;;;;;;;;;;;;;;;22.62;31.64;97965.94;4982216;28;927;-79
2023/06/20 10:26:51;;;;;;;;;;;;;;;22.83;31.39;97965.25;4982562;28;1229;-79
2023/06/20 10:29:16;;;;;;;;;;;;;;;22.54;31.80;97962.53;4998434;28;850;-80
2023/06/20 10:32:17;;;;;;;;;;;;;;;22.44;32.22;97957.19;4998952;28;1891;-78
2023/06/20 10:34:43;;;;;;;;;;;;;;;22.63;31.89;97959.00;5017810;28;1021;-79
2023/06/20 10:37:10;;;;;;;;;;;;;;;22.50;31.93;97961.84;5001821;28;1049;-79
2023/06/20 10:39:35;;;;;;;;;;;;;;;22.60;31.79;97951.41;5000862;28;912;-79
2023/06/20 10:42:07;;;;;;;;;;;;;;;22.68;31.66;97961.28;5001151;28;1329;-79
2023/06/20 10:44:32;;;;;;;;;;;;;;;22.71;31.35;97959.59;4959557;29;1025;-79
2023/06/20 10:46:58;;;;;;;;;;;;;;;23.04;30.68;97954.47;4959559;29;1305;-79
2023/06/20 10:49:24;;;;;;;;;;;;;;;22.57;31.45;97946.66;4942817;29;1021;-78
2023/06/20 10:51:50;;;;;;;;;;;;;;;22.52;31.73;97952.88;4943271;29;1989;-79
2023/06/20 10:54:16;;;;;;;;;;;;;;;22.80;31.14;97956.88;4958908;29;831;-79
2023/06/20 10:56:46;;;;;;;;;;;;;;;22.54;31.48;97945.53;4959253;29;1060;-79
2023/06/20 10:59:15;;;;;;;;;;;;;;;22.63;30.99;97948.44;4958841;29;905;-79
2023/06/20 11:01:41;;;;;;;;;;;;;;;22.84;30.53;97946.19;4959266;29;1059;-79
2023/06/20 11:04:07;;;;;;;;;;;;;;;22.59;30.97;97947.00;4958605;29;1000;-79
2023/06/20 11:06:33;;;;;;;;;;;;;;;22.57;31.19;97946.66;4943543;29;1101;-79
2023/06/20 11:08:58;;;;;;;;;;;;;;;22.53;31.41;97938.25;4970595;28;1004;-79
2023/06/20 11:11:31;;;;;;;;;;;;;;;22.58;31.30;97939.72;4978691;28;1983;-79
2023/06/20 11:14:08;;;;;;;;;;;;;;;22.55;31.31;97941.44;4961677;28;1119;-79
2023/06/20 11:16:34;;;;;;;;;;;;;;;22.54;31.32;97944.72;5014299;28;983;-80
2023/06/20 11:18:59;;;;;;;;;;;;;;;22.58;31.30;97948.22;5000970;28;821;-79
2023/06/20 11:21:25;;;;;;;;;;;;;;;22.58;31.21;97939.72;5035047;28;853;-79
2023/06/20 11:23:57;;;;;;;;;;;;;;;22.66;30.71;97943.13;5038128;28;870;-79
2023/06/20 11:26:27;;;;;;;;;;;;;;;22.48;31.33;97940.84;5037084;28;911;-79
2023/06/20 11:28:58;;;;;;;;;;;;;;;22.34;31.56;97937.22;5019959;28;890;-79
2023/06/20 11:31:24;;;;;;;;;;;;;;;22.49;30.94;97937.59;5020439;28;1887;-79
2023/06/20 11:34:00;;;;;;;;;;;;;;;22.74;30.56;97924.63;5016270;28;948;-80
2023/06/20 11:36:26;;;;;;;;;;;;;;;22.54;30.77;97927.72;5017131;28;959;-79
2023/06/20 11:38:53;;;;;;;;;;;;;;;22.79;30.68;97921.22;4984068;28;822;-79
2023/06/20 11:41:19;;;;;;;;;;;;;;;22.66;30.93;97924.06;5000852;28;990;-79
2023/06/20 11:43:45;;;;;;;;;;;;;;;22.63;31.03;97919.31;4996796;28;1076;-79
2023/06/20 11:46:11;;;;;;;;;;;;;;;22.68;30.78;97932.91;5017057;28;1137;-79
2023/06/20 11:48:37;;;;;;;;;;;;;;;22.62;30.77;97958.22;4999833;28;820;-80
2023/06/20 11:51:05;;;;;;;;;;;;;;;22.57;30.99;97943.81;5000673;28;1902;-79
2023/06/20 11:53:35;;;;;;;;;;;;;;;22.51;30.79;97942.78;4967642;28;1432;-79
2023/06/20 11:56:04;;;;;;;;;;;;;;;22.56;30.83;97947.91;5000754;28;985;-79
2023/06/20 11:58:39;;;;;;;;;;;;;;;22.40;30.97;97939.50;5000067;28;888;-79
2023/06/20 12:01:13;;;;;;;;;;;;;;;22.60;30.72;97932.38;5000928;28;1269;-79
2023/06/20 12:03:41;;;;;;;;;;;;;;;22.73;30.38;97943.69;5015875;28;1341;-79
2023/06/20 12:06:25;;;;;;;;;;;;;;;22.59;30.72;97958.34;5000903;28;1201;-79
2023/06/20 12:08:54;;;;;;;;;;;;;;;22.61;30.69;97941.66;4999918;28;1187;-79
2023/06/20 12:11:20;;;;;;;;;;;;;;;22.62;30.55;97951.75;5027722;28;1983;-79
2023/06/20 12:13:45;;;;;;;;;;;;;;;22.47;30.76;97950.59;5036993;28;846;-79
2023/06/20 12:16:11;;;;;;;;;;;;;;;22.59;30.63;97964.81;5054508;28;942;-79
2023/06/20 12:18:36;;;;;;;;;;;;;;;22.58;30.52;97990.75;5037142;28;854;-79
2023/06/20 12:21:01;;;;;;;;;;;;;;;22.34;30.85;97985.41;5054475;28;849;-79
2023/06/20 12:23:27;;;;;;;;;;;;;;;22.49;30.82;97990.66;5038334;28;805;-80
2023/06/20 12:25:53;;;;;;;;;;;;;;;22.28;30.68;98004.22;5036632;28;1047;-79
2023/06/20 12:28:19;;;;;;;;;;;;;;;22.40;30.78;97984.84;5005715;28;914;-79
2023/06/20 12:30:44;;;;;;;;;;;;;;;22.39;30.49;97988.94;5000996;28;1286;-79
2023/06/20 12:33:11;;;;;;;;;;;;;;;22.61;30.17;97984.19;4985268;28;1916;-80
2023/06/20 12:35:37;;;;;;;;;;;;;;;22.64;30.08;97994.66;4962098;29;891;-79
2023/06/20 12:38:02;;;;;;;;;;;;;;;22.47;29.95;97998.81;4962229;29;776;-79
2023/06/20 12:40:28;;;;;;;;;;;;;;;22.46;29.97;97988.72;4961957;29;911;-79
2023/06/20 12:42:53;;;;;;;;;;;;;;;22.43;30.13;97981.91;4962473;29;824;-80
2023/06/20 12:45:19;;;;;;;;;;;;;;;22.52;29.71;97970.69;4977828;28;1236;-79
2023/06/20 12:47:45;;;;;;;;;;;;;;;22.47;30.00;97962.75;4997529;28;1272;-79
2023/06/20 12:50:10;;;;;;;;;;;;;;;22.52;29.57;97981.22;4981212;28;992;-79
2023/06/20 12:52:36;;;;;;;;;;;;;;;22.44;29.74;97997.69;4981548;28;1989;-79
2023/06/20 12:55:04;;;;;;;;;;;;;;;22.33;30.14;98020.69;4980611;28;1056;-79
2023/06/20 12:57:29;;;;;;;;;;;;;;;22.27;30.24;98030.16;4923732;29;1345;-79